createdAt,value
2023-03-18T00:01:25.091Z,13.60
2023-03-18T00:06:24.375Z,13.60
2023-03-18T00:11:24.626Z,13.60
2023-03-18T00:16:23.869Z,13.60
2023-03-18T00:21:23.427Z,13.60
2023-03-18T00:26:24.232Z,13.50
2023-03-18T00:31:23.066Z,13.50
2023-03-18T00:36:26.320Z,13.50
2023-03-18T00:41:27.739Z,13.50
2023-03-18T00:46:28.296Z,13.50
2023-03-18T00:51:28.525Z,13.40
2023-03-18T00:56:31.314Z,13.40
2023-03-18T01:01:30.779Z,13.40
2023-03-18T01:06:37.765Z,13.50
2023-03-18T01:11:38.236Z,13.40
2023-03-18T01:16:37.069Z,13.40
2023-03-18T01:21:35.666Z,13.40
2023-03-18T01:26:35.215Z,13.30
2023-03-18T01:31:36.087Z,13.40
2023-03-18T01:36:40.312Z,13.40
2023-03-18T01:41:40.470Z,13.30
2023-03-18T01:46:45.000Z,13.30
2023-03-18T01:51:49.303Z,13.30
2023-03-18T01:56:50.644Z,13.30
2023-03-18T02:01:56.464Z,13.20
2023-03-18T02:06:56.405Z,13.20
2023-03-18T02:11:58.071Z,13.20
2023-03-18T02:17:03.385Z,13.20
2023-03-18T02:22:12.423Z,13.20
2023-03-18T02:27:19.180Z,13.20
2023-03-18T02:32:18.836Z,13.20
2023-03-18T02:37:17.452Z,13.20
2023-03-18T02:42:18.658Z,13.20
2023-03-18T02:47:51.464Z,13.20
2023-03-18T02:52:50.080Z,13.20
2023-03-18T02:57:51.292Z,13.10
2023-03-18T03:02:50.373Z,13.20
2023-03-18T03:07:48.750Z,13.10
2023-03-18T03:12:47.868Z,13.10
2023-03-18T03:17:49.748Z,13.00
2023-03-18T03:22:49.834Z,13.00
2023-03-18T03:27:50.124Z,13.00
2023-03-18T03:32:52.055Z,13.00
2023-03-18T03:37:51.010Z,13.10
2023-03-18T03:42:50.652Z,13.10
2023-03-18T03:47:51.406Z,13.10
2023-03-18T03:52:50.018Z,13.10
2023-03-18T03:57:49.004Z,13.10
2023-03-18T04:02:49.436Z,13.00
2023-03-18T04:07:50.794Z,13.00
2023-03-18T04:12:51.932Z,13.00
2023-03-18T04:17:50.889Z,13.00
2023-03-18T04:22:52.311Z,13.00
2023-03-18T04:27:54.004Z,13.00
2023-03-18T04:32:53.968Z,13.00
2023-03-18T04:37:54.628Z,13.00
2023-03-18T04:42:54.716Z,13.00
2023-03-18T04:47:56.742Z,13.00
2023-03-18T04:52:58.823Z,13.00
2023-03-18T04:58:00.892Z,13.00
2023-03-18T05:03:03.776Z,13.00
2023-03-18T05:08:03.784Z,13.00
2023-03-18T05:13:03.993Z,13.00
2023-03-18T05:18:06.070Z,13.00
2023-03-18T05:23:07.233Z,13.00
2023-03-18T05:28:13.534Z,12.90
2023-03-18T05:33:23.340Z,12.90
2023-03-18T05:38:29.652Z,12.90
2023-03-18T05:43:30.305Z,12.90
2023-03-18T05:48:29.637Z,12.90
2023-03-18T05:53:35.489Z,12.90
2023-03-18T05:58:46.278Z,12.90
2023-03-18T06:04:00.468Z,12.90
2023-03-18T06:09:01.266Z,12.90
2023-03-18T06:13:59.833Z,12.90
2023-03-18T06:18:59.206Z,12.90
2023-03-18T06:23:57.598Z,12.90
2023-03-18T06:28:59.079Z,12.90
2023-03-18T06:34:00.875Z,12.90
2023-03-18T06:39:01.631Z,12.90
2023-03-18T06:44:02.212Z,12.90
2023-03-18T06:49:01.867Z,12.90
2023-03-18T06:54:04.214Z,12.90
2023-03-18T06:59:05.485Z,13.00
2023-03-18T07:04:07.272Z,13.00
2023-03-18T07:09:06.986Z,13.00
2023-03-18T07:14:08.243Z,13.00
2023-03-18T07:19:07.660Z,13.10
2023-03-18T07:24:06.318Z,13.10
2023-03-18T07:29:06.252Z,13.10
2023-03-18T07:34:04.889Z,13.20
2023-03-18T07:39:03.837Z,13.30
2023-03-18T07:44:02.355Z,13.40
2023-03-18T07:49:02.527Z,13.50
2023-03-18T07:54:01.087Z,13.70
2023-03-18T07:58:59.836Z,13.80
2023-03-18T08:03:58.445Z,13.90
2023-03-18T08:08:58.026Z,14.10
2023-03-18T08:13:56.245Z,14.20
2023-03-18T08:18:54.791Z,14.30
2023-03-18T08:23:53.301Z,14.40
2023-03-18T08:28:53.514Z,14.60
2023-03-18T08:33:54.485Z,14.70
2023-03-18T08:38:53.044Z,14.80
2023-03-18T08:43:55.700Z,14.90
2023-03-18T08:48:54.664Z,15.00
2023-03-18T08:53:52.853Z,15.20
2023-03-18T08:58:53.086Z,15.30
2023-03-18T09:03:52.178Z,15.50
2023-03-18T09:08:50.370Z,15.60
2023-03-18T09:13:48.881Z,15.70
2023-03-18T09:18:48.998Z,15.80
2023-03-18T09:23:47.699Z,16.00
2023-03-18T09:28:46.703Z,16.10
2023-03-18T09:33:44.912Z,16.30
2023-03-18T09:38:44.794Z,16.40
2023-03-18T09:43:57.669Z,16.50
2023-03-18T09:49:15.294Z,16.60
2023-03-18T09:54:20.387Z,16.70
2023-03-18T09:59:22.810Z,16.80
2023-03-18T10:04:25.180Z,16.80
2023-03-18T10:09:29.417Z,16.80
2023-03-18T10:14:37.535Z,16.80
2023-03-18T10:19:37.993Z,16.90
2023-03-18T10:24:43.474Z,17.00
2023-03-18T10:29:48.463Z,17.10
2023-03-18T10:34:58.607Z,17.20
2023-03-18T10:40:00.253Z,17.20
2023-03-18T10:45:15.525Z,17.20
2023-03-18T10:50:19.123Z,17.30
2023-03-18T10:55:23.687Z,17.40
2023-03-18T11:00:29.670Z,17.50
2023-03-18T11:05:30.611Z,17.70
2023-03-18T11:10:35.960Z,17.90
2023-03-18T11:15:40.056Z,18.10
2023-03-18T11:20:44.434Z,18.20
2023-03-18T11:25:47.225Z,18.30
2023-03-18T11:30:48.588Z,18.40
2023-03-18T11:35:51.558Z,18.40
2023-03-18T11:40:52.423Z,18.50
2023-03-18T11:45:54.286Z,18.50
2023-03-18T11:51:25.256Z,18.60
2023-03-18T11:56:34.745Z,18.70
2023-03-18T12:01:45.014Z,18.80
2023-03-18T12:06:51.087Z,18.90
2023-03-18T12:12:02.293Z,19.00
2023-03-18T12:17:16.616Z,19.10
2023-03-18T12:22:35.889Z,19.30
2023-03-18T12:27:46.637Z,19.30
2023-03-18T12:32:52.122Z,19.40
2023-03-18T12:44:49.437Z,19.50
2023-03-18T12:49:53.721Z,19.60
2023-03-18T12:54:59.078Z,19.70
2023-03-18T13:00:03.376Z,19.80
2023-03-18T13:05:06.048Z,19.90
2023-03-18T13:10:54.799Z,19.90
2023-03-18T13:15:55.850Z,20.10
2023-03-18T13:20:55.501Z,20.30
2023-03-18T13:26:07.459Z,20.40
2023-03-18T13:31:15.811Z,20.40
2023-03-18T13:36:46.565Z,20.50
2023-03-18T13:42:07.227Z,20.50
2023-03-18T13:47:09.699Z,20.50
2023-03-18T13:52:25.821Z,20.60
2023-03-18T13:57:48.273Z,20.60
2023-03-18T14:03:02.736Z,20.50
2023-03-18T14:08:05.912Z,20.50
2023-03-18T14:13:27.085Z,20.60
2023-03-18T14:18:37.405Z,20.60
2023-03-18T14:23:39.674Z,20.60
2023-03-18T14:28:46.805Z,20.70
2023-03-18T14:34:03.181Z,20.60
2023-03-18T14:39:04.570Z,20.60
2023-03-18T14:44:10.488Z,20.60
2023-03-18T14:49:33.773Z,20.60
2023-03-18T14:54:37.134Z,20.60
2023-03-18T14:59:35.403Z,20.60
2023-03-18T15:04:35.431Z,20.60
2023-03-18T15:09:36.568Z,20.60
2023-03-18T15:14:35.373Z,20.60
2023-03-18T15:19:35.240Z,20.60
2023-03-18T15:24:34.474Z,20.60
2023-03-18T15:29:35.158Z,20.50
2023-03-18T15:34:36.195Z,20.50
2023-03-18T15:39:36.461Z,20.50
2023-03-18T15:44:39.002Z,20.50
2023-03-18T15:49:50.732Z,20.50
2023-03-18T15:54:49.705Z,20.50
2023-03-18T15:59:48.103Z,20.40
2023-03-18T16:04:49.051Z,20.30
2023-03-18T16:09:47.574Z,20.20
2023-03-18T16:14:50.104Z,20.10
2023-03-18T16:19:54.653Z,20.00
2023-03-18T16:24:52.841Z,19.90
2023-03-18T16:29:51.114Z,19.80
2023-03-18T16:34:51.474Z,19.60
2023-03-18T16:39:50.189Z,19.50
2023-03-18T16:44:48.683Z,19.30
2023-03-18T16:49:47.460Z,19.20
2023-03-18T16:54:47.388Z,19.20
2023-03-18T16:59:50.362Z,19.00
2023-03-18T17:04:48.913Z,19.00
2023-03-18T17:09:48.755Z,18.80
2023-03-18T17:14:53.237Z,18.70
2023-03-18T17:19:51.740Z,18.70
2023-03-18T17:24:52.175Z,18.50
2023-03-18T17:29:50.505Z,18.40
2023-03-18T17:34:50.818Z,18.30
2023-03-18T17:39:49.975Z,18.20
2023-03-18T17:44:50.064Z,18.10
2023-03-18T17:49:48.604Z,18.00
2023-03-18T17:54:47.382Z,17.90
2023-03-18T17:59:46.599Z,17.80
2023-03-18T18:04:46.983Z,17.70
2023-03-18T18:09:46.405Z,17.50
2023-03-18T18:14:45.937Z,17.40
2023-03-18T18:20:46.432Z,17.30
2023-03-18T18:25:46.431Z,17.20
2023-03-18T18:30:45.614Z,17.10
2023-03-18T18:35:44.451Z,17.00
2023-03-18T18:40:43.508Z,16.90
2023-03-18T18:45:44.021Z,16.80
2023-03-18T18:50:44.251Z,16.80
2023-03-18T18:55:42.769Z,16.60
2023-03-18T19:00:42.883Z,16.60
2023-03-18T19:05:41.969Z,16.50
2023-03-18T19:10:41.299Z,16.40
2023-03-18T19:15:39.932Z,16.40
2023-03-18T19:21:04.471Z,16.30
2023-03-18T19:26:04.397Z,16.20
2023-03-18T19:31:02.938Z,16.20
2023-03-18T19:36:09.055Z,16.00
2023-03-18T19:41:08.954Z,16.00
2023-03-18T19:46:07.528Z,16.00
2023-03-18T19:51:08.210Z,15.90
2023-03-18T19:56:10.682Z,15.80
2023-03-18T20:01:09.118Z,15.70
2023-03-18T20:06:08.335Z,15.60
2023-03-18T20:11:12.002Z,15.60
2023-03-18T20:16:14.243Z,15.50
2023-03-18T20:21:22.558Z,15.50
2023-03-18T20:26:23.479Z,15.40
2023-03-18T20:31:21.681Z,15.30
2023-03-18T20:36:20.712Z,15.30
2023-03-18T20:41:20.573Z,15.30
2023-03-18T20:46:23.811Z,15.20
2023-03-18T20:51:28.178Z,15.20
2023-03-18T20:56:27.413Z,15.10
2023-03-18T21:01:27.702Z,15.10
2023-03-18T21:06:26.254Z,15.10
2023-03-18T21:11:30.265Z,15.00
2023-03-18T21:16:30.196Z,15.00
2023-03-18T21:21:32.818Z,15.00
2023-03-18T21:26:31.302Z,15.00
2023-03-18T21:31:32.248Z,15.00
2023-03-18T21:36:31.206Z,15.00
2023-03-18T21:41:30.913Z,14.90
2023-03-18T21:46:31.216Z,14.90
2023-03-18T21:51:39.238Z,14.80
2023-03-18T21:56:38.516Z,14.90
2023-03-18T22:01:38.499Z,14.80
2023-03-18T22:06:37.245Z,14.80
2023-03-18T22:11:36.357Z,14.80
2023-03-18T22:16:34.626Z,14.80
2023-03-18T22:21:34.480Z,14.70
2023-03-18T22:26:32.950Z,14.80
2023-03-18T22:31:32.179Z,14.80
2023-03-18T22:36:30.806Z,14.80
2023-03-18T22:41:30.708Z,14.80
2023-03-18T22:46:30.354Z,14.80
2023-03-18T22:51:31.057Z,14.80
2023-03-18T22:56:32.528Z,14.80
2023-03-18T23:01:32.506Z,14.80
2023-03-18T23:06:31.993Z,14.70
2023-03-18T23:11:31.895Z,14.70
2023-03-18T23:16:30.516Z,14.70
2023-03-18T23:21:29.132Z,14.70
2023-03-18T23:26:27.643Z,14.70
2023-03-18T23:31:27.340Z,14.70
2023-03-18T23:36:25.867Z,14.70
2023-03-18T23:41:24.396Z,14.70
2023-03-18T23:46:23.028Z,14.70
2023-03-18T23:51:22.957Z,14.70
2023-03-18T23:56:21.518Z,14.70
